Time;durP1;ratioP1;P1;durP2;ratioP2;P2;SDS_P1;SDS_P2;PMS_P1;PMS_P2;Temp;Humidity;BMP_temperature;BMP_pressure;BME280_temperature;BME280_humidity;BME280_pressure;Samples;Min_cycle;Max_cycle;Signal;HPM_P1;HPM_P2
2021/10/14 00:00:10;;;;;;;30.92;24.08;;;8.80;99.90;;;;;;5058737;28;20024;-70
2021/10/14 00:02:36;;;;;;;32.85;23.88;;;8.80;99.90;;;;;;5076724;28;20032;-71
2021/10/14 00:05:03;;;;;;;29.35;23.90;;;8.80;99.90;;;;;;5076296;28;20494;-71
2021/10/14 00:07:29;;;;;;;33.58;24.92;;;8.70;99.90;;;;;;5079836;28;20040;-71
2021/10/14 00:09:55;;;;;;;30.55;22.70;;;8.70;99.90;;;;;;5064606;28;20035;-72
2021/10/14 00:12:21;;;;;;;31.30;22.85;;;8.70;99.90;;;;;;5076852;28;20077;-69
2021/10/14 00:14:47;;;;;;;31.23;23.70;;;8.70;99.90;;;;;;5058528;28;20024;-70
2021/10/14 00:17:12;;;;;;;32.33;24.98;;;8.70;99.90;;;;;;5076519;28;20043;-71
2021/10/14 00:19:40;;;;;;;33.17;25.08;;;8.70;99.90;;;;;;5058561;28;20024;-71
2021/10/14 00:22:06;;;;;;;31.13;23.60;;;8.70;99.90;;;;;;5058668;28;20074;-74
2021/10/14 00:24:31;;;;;;;31.70;24.50;;;8.70;99.90;;;;;;5057428;28;20059;-71
2021/10/14 00:26:58;;;;;;;34.42;26.23;;;8.80;99.90;;;;;;5076291;28;20068;-71
2021/10/14 00:29:23;;;;;;;36.03;25.95;;;8.80;99.90;;;;;;5076076;28;20466;-71
2021/10/14 00:31:49;;;;;;;32.35;23.95;;;8.70;99.90;;;;;;5058192;28;20031;-70
2021/10/14 00:34:15;;;;;;;32.63;24.63;;;8.80;99.90;;;;;;5076022;28;20024;-71
2021/10/14 00:36:41;;;;;;;32.70;23.92;;;8.80;99.90;;;;;;5076239;28;20047;-71
2021/10/14 00:39:06;;;;;;;34.00;25.00;;;8.80;99.90;;;;;;5058025;28;20024;-72
2021/10/14 00:41:32;;;;;;;33.08;23.70;;;8.80;99.90;;;;;;5058504;28;20477;-72
2021/10/14 00:43:59;;;;;;;31.67;23.50;;;8.80;99.90;;;;;;5058315;28;20040;-71
2021/10/14 00:46:25;;;;;;;31.25;22.95;;;8.80;99.90;;;;;;5057850;28;20037;-72
2021/10/14 00:48:52;;;;;;;33.25;23.70;;;8.80;99.90;;;;;;5058258;28;20033;-71
2021/10/14 00:51:18;;;;;;;32.88;23.88;;;8.70;99.90;;;;;;5058058;28;20031;-71
2021/10/14 00:53:44;;;;;;;30.23;23.27;;;8.80;99.90;;;;;;5075609;28;20418;-71
2021/10/14 00:56:10;;;;;;;29.67;22.85;;;8.70;99.90;;;;;;5075751;28;20104;-71
2021/10/14 00:58:37;;;;;;;30.63;23.67;;;8.80;99.90;;;;;;5075635;28;20421;-71
2021/10/14 01:01:04;;;;;;;32.85;23.63;;;8.70;99.90;;;;;;5075830;28;20379;-71
2021/10/14 01:03:31;;;;;;;31.58;22.90;;;8.70;99.90;;;;;;5084996;28;20058;-71
2021/10/14 01:05:57;;;;;;;30.23;22.50;;;8.70;99.90;;;;;;5077855;28;20024;-71
2021/10/14 01:08:23;;;;;;;29.67;21.48;;;8.80;99.90;;;;;;5095582;28;20644;-71
2021/10/14 01:10:50;;;;;;;30.40;21.70;;;8.80;99.90;;;;;;5095543;28;20034;-70
2021/10/14 01:13:16;;;;;;;33.47;23.58;;;8.80;99.90;;;;;;5095920;28;20046;-71
2021/10/14 01:15:42;;;;;;;30.90;23.58;;;8.80;99.90;;;;;;5077763;28;20032;-71
2021/10/14 01:18:08;;;;;;;31.88;23.80;;;8.80;99.90;;;;;;5095607;28;20119;-70
2021/10/14 01:20:33;;;;;;;28.27;21.80;;;8.80;99.90;;;;;;5077133;28;20120;-71
2021/10/14 01:22:59;;;;;;;29.98;23.48;;;8.80;99.90;;;;;;5077858;28;20024;-71
2021/10/14 01:25:25;;;;;;;34.55;25.15;;;8.80;99.90;;;;;;5091762;28;20082;-71
2021/10/14 01:27:51;;;;;;;31.20;23.52;;;8.90;99.90;;;;;;5073687;28;20056;-71
2021/10/14 01:30:18;;;;;;;34.45;24.00;;;8.80;99.90;;;;;;5075136;28;20027;-71
2021/10/14 01:32:46;;;;;;;33.85;24.10;;;8.80;99.90;;;;;;5075054;28;20478;-71
2021/10/14 01:35:12;;;;;;;32.55;23.73;;;8.80;99.90;;;;;;5055939;28;20025;-72
2021/10/14 01:37:38;;;;;;;34.63;24.65;;;8.80;99.90;;;;;;5075007;28;20031;-71
2021/10/14 01:40:05;;;;;;;34.35;25.23;;;8.80;99.90;;;;;;5056802;28;20401;-70
2021/10/14 01:42:31;;;;;;;33.72;24.95;;;8.80;99.90;;;;;;5074911;28;20462;-71
2021/10/14 01:45:00;;;;;;;32.25;23.80;;;8.90;99.90;;;;;;5074725;28;20024;-72
2021/10/14 01:47:30;;;;;;;32.38;24.40;;;8.90;99.90;;;;;;5056531;28;20058;-69
2021/10/14 01:49:56;;;;;;;31.55;23.52;;;8.90;99.90;;;;;;5056519;28;20039;-71
2021/10/14 01:52:22;;;;;;;36.53;25.55;;;8.80;99.90;;;;;;5074905;28;20058;-71
2021/10/14 01:54:48;;;;;;;33.03;24.00;;;8.80;99.90;;;;;;5074168;28;20024;-70
2021/10/14 01:57:14;;;;;;;36.10;26.58;;;8.80;99.90;;;;;;5074611;28;20040;-71
2021/10/14 01:59:40;;;;;;;36.65;26.45;;;8.80;99.90;;;;;;5056741;28;20048;-71
2021/10/14 02:02:05;;;;;;;37.53;26.35;;;8.80;99.90;;;;;;5074519;28;20032;-70
2021/10/14 02:04:31;;;;;;;35.42;26.50;;;8.90;99.90;;;;;;5056025;28;20044;-71
2021/10/14 02:06:57;;;;;;;36.05;25.73;;;8.90;99.90;;;;;;5074492;28;20048;-70
2021/10/14 02:09:22;;;;;;;36.92;26.17;;;8.80;99.90;;;;;;5056668;28;20031;-71
2021/10/14 02:11:48;;;;;;;39.15;27.23;;;8.80;99.90;;;;;;5056312;28;20391;-70
2021/10/14 02:14:14;;;;;;;38.72;26.77;;;8.90;99.90;;;;;;5074042;28;20025;-71
2021/10/14 02:16:40;;;;;;;42.17;28.20;;;8.90;99.90;;;;;;5074064;28;20063;-72
2021/10/14 02:19:05;;;;;;;36.55;26.63;;;8.90;99.90;;;;;;5055934;28;20082;-71
2021/10/14 02:21:31;;;;;;;41.67;28.75;;;8.90;99.90;;;;;;5074080;28;20108;-71
2021/10/14 02:23:57;;;;;;;41.05;27.70;;;8.90;99.90;;;;;;5055927;28;20036;-71
2021/10/14 02:26:23;;;;;;;39.85;28.00;;;8.80;99.90;;;;;;5056273;28;20033;-71
2021/10/14 02:28:48;;;;;;;41.70;28.67;;;8.90;99.90;;;;;;5067658;28;20028;-71
2021/10/14 02:31:14;;;;;;;41.10;28.55;;;8.90;99.90;;;;;;5094077;28;20077;-71
2021/10/14 02:33:40;;;;;;;41.45;29.20;;;8.90;99.90;;;;;;5094177;28;20020;-72
2021/10/14 02:36:05;;;;;;;39.00;29.02;;;8.90;99.90;;;;;;5076047;28;20023;-72
2021/10/14 02:38:31;;;;;;;39.33;28.73;;;8.90;99.90;;;;;;5075877;28;20078;-71
2021/10/14 02:40:57;;;;;;;40.33;27.98;;;8.90;99.90;;;;;;5076045;28;20025;-71
2021/10/14 02:43:23;;;;;;;40.92;27.30;;;8.90;99.90;;;;;;5076211;28;20035;-72
2021/10/14 02:45:48;;;;;;;41.40;28.02;;;8.90;99.90;;;;;;5075681;28;20466;-70
2021/10/14 02:48:14;;;;;;;38.80;27.67;;;8.90;99.90;;;;;;5075688;28;20044;-71
2021/10/14 02:50:39;;;;;;;40.20;28.33;;;8.80;99.90;;;;;;5075972;28;20123;-71
2021/10/14 02:53:05;;;;;;;37.63;27.05;;;8.90;99.90;;;;;;5074578;28;20522;-71
2021/10/14 02:55:31;;;;;;;39.05;27.70;;;8.90;99.90;;;;;;5055656;28;20143;-71
2021/10/14 02:57:56;;;;;;;40.20;27.95;;;8.90;99.90;;;;;;5055596;28;20082;-71
2021/10/14 03:00:22;;;;;;;39.72;28.05;;;8.90;99.90;;;;;;5073521;28;20106;-72
2021/10/14 03:02:48;;;;;;;42.78;28.02;;;8.90;99.90;;;;;;5073782;28;20025;-71
2021/10/14 03:05:13;;;;;;;41.60;28.63;;;8.90;99.90;;;;;;5073875;28;20440;-71
2021/10/14 03:07:39;;;;;;;42.70;28.90;;;8.90;99.90;;;;;;5055453;28;20132;-71
2021/10/14 03:10:05;;;;;;;40.85;28.48;;;8.80;99.90;;;;;;5055464;28;20127;-74
2021/10/14 03:12:31;;;;;;;43.35;29.48;;;8.80;99.90;;;;;;5073719;28;20025;-72
2021/10/14 03:14:56;;;;;;;39.35;27.70;;;8.80;99.90;;;;;;5069736;28;20099;-73
2021/10/14 03:17:22;;;;;;;41.10;28.88;;;8.80;99.90;;;;;;5073211;28;20051;-72
2021/10/14 03:19:48;;;;;;;44.58;29.15;;;8.80;99.90;;;;;;5073738;28;20025;-70
2021/10/14 03:22:13;;;;;;;41.55;28.83;;;8.80;99.90;;;;;;5073424;28;20086;-71
2021/10/14 03:24:39;;;;;;;43.58;29.20;;;8.90;99.90;;;;;;5056362;28;20554;-71
2021/10/14 03:27:05;;;;;;;45.85;29.02;;;8.90;99.90;;;;;;5073312;28;20095;-71
2021/10/14 03:29:30;;;;;;;39.65;27.75;;;8.90;99.90;;;;;;5073202;28;20024;-71
2021/10/14 03:31:56;;;;;;;47.33;30.52;;;8.90;99.90;;;;;;5055115;28;20054;-72
2021/10/14 03:34:22;;;;;;;42.22;30.00;;;8.90;99.90;;;;;;5055448;28;20490;-72
2021/10/14 03:36:47;;;;;;;42.80;28.15;;;8.90;99.90;;;;;;5054975;28;20043;-71
2021/10/14 03:39:13;;;;;;;45.13;30.35;;;8.90;99.90;;;;;;5073139;28;20031;-72
2021/10/14 03:41:39;;;;;;;39.63;27.73;;;8.80;99.90;;;;;;5055188;28;20509;-72
2021/10/14 03:44:04;;;;;;;40.03;27.45;;;8.80;99.90;;;;;;5061844;28;20099;-80
2021/10/14 03:46:30;;;;;;;42.58;27.10;;;8.80;99.90;;;;;;5066366;28;20467;-76
2021/10/14 03:48:56;;;;;;;38.38;26.95;;;8.80;99.90;;;;;;5061269;28;20351;-76
2021/10/14 03:51:21;;;;;;;40.60;27.23;;;8.80;99.90;;;;;;5055313;28;20020;-79
2021/10/14 03:53:47;;;;;;;40.28;27.15;;;8.70;99.90;;;;;;5055083;28;20530;-76
2021/10/14 03:56:12;;;;;;;41.10;27.33;;;8.70;99.90;;;;;;5054336;28;20078;-77
2021/10/14 03:58:38;;;;;;;37.00;26.13;;;8.80;99.90;;;;;;5043557;28;20025;-77
2021/10/14 04:01:04;;;;;;;38.08;26.60;;;8.70;99.90;;;;;;5051495;28;20060;-80
2021/10/14 04:03:29;;;;;;;39.13;25.75;;;8.70;99.90;;;;;;5093866;28;20453;-77
2021/10/14 04:05:55;;;;;;;40.33;26.25;;;8.70;99.90;;;;;;5054579;28;20032;-79
2021/10/14 04:08:21;;;;;;;39.30;25.55;;;8.70;99.90;;;;;;5074203;28;20045;-76
2021/10/14 04:10:46;;;;;;;38.92;25.70;;;8.70;99.90;;;;;;5057057;28;20120;-76
2021/10/14 04:13:12;;;;;;;36.60;26.08;;;8.70;99.90;;;;;;5054760;28;20189;-78
2021/10/14 04:15:38;;;;;;;36.60;24.88;;;8.70;99.90;;;;;;5056836;28;20033;-76
2021/10/14 04:18:03;;;;;;;38.17;25.60;;;8.70;99.90;;;;;;5039036;28;20352;-79
2021/10/14 04:20:29;;;;;;;37.38;24.48;;;8.70;99.90;;;;;;5072603;28;20459;-80
2021/10/14 04:22:55;;;;;;;33.22;22.70;;;8.70;99.90;;;;;;5074568;28;20475;-78
2021/10/14 04:25:21;;;;;;;30.40;21.63;;;8.70;99.90;;;;;;5064875;28;20039;-79
2021/10/14 04:27:47;;;;;;;32.05;21.83;;;8.70;99.90;;;;;;5048613;28;20033;-78
2021/10/14 04:30:13;;;;;;;31.05;22.40;;;8.70;99.90;;;;;;5045363;28;20024;-76
2021/10/14 04:32:39;;;;;;;33.28;22.13;;;8.80;99.90;;;;;;5074967;28;20492;-76
2021/10/14 04:35:05;;;;;;;30.45;21.70;;;8.80;99.90;;;;;;5089259;28;20029;-78
2021/10/14 04:37:31;;;;;;;33.10;21.85;;;8.80;99.90;;;;;;5059671;28;20060;-80
2021/10/14 04:39:57;;;;;;;32.35;21.08;;;8.70;99.90;;;;;;5053026;28;20065;-78
2021/10/14 04:42:22;;;;;;;28.58;19.73;;;8.80;99.90;;;;;;5056098;28;20025;-77
2021/10/14 04:44:48;;;;;;;31.42;20.10;;;8.90;99.90;;;;;;5054155;28;20029;-70
2021/10/14 04:47:18;;;;;;;27.77;19.92;;;8.90;99.90;;;;;;5086158;28;20066;-72
2021/10/14 04:49:45;;;;;;;28.73;19.25;;;8.90;99.90;;;;;;5076089;28;20150;-72
2021/10/14 04:52:11;;;;;;;29.05;19.17;;;9.00;99.90;;;;;;5040402;28;20094;-73
2021/10/14 04:54:36;;;;;;;26.50;18.45;;;9.00;99.90;;;;;;5047590;28;20029;-74
2021/10/14 04:57:02;;;;;;;27.05;18.58;;;9.00;99.90;;;;;;5069799;28;20489;-71
2021/10/14 04:59:28;;;;;;;26.05;18.13;;;9.00;99.90;;;;;;5052021;28;20055;-73
2021/10/14 05:01:54;;;;;;;27.70;18.83;;;9.00;99.90;;;;;;5065761;28;20394;-68
2021/10/14 05:04:19;;;;;;;27.30;19.02;;;9.00;99.90;;;;;;5067608;28;20131;-68
2021/10/14 05:06:45;;;;;;;27.70;18.95;;;9.10;99.90;;;;;;5045412;28;20033;-72
2021/10/14 05:09:11;;;;;;;25.48;17.63;;;9.00;99.70;;;;;;5045805;28;20031;-72
2021/10/14 05:11:36;;;;;;;24.00;17.98;;;9.00;99.80;;;;;;5055546;28;20036;-73
2021/10/14 05:14:02;;;;;;;25.88;16.98;;;9.00;99.90;;;;;;5075169;28;20027;-75
2021/10/14 05:16:32;;;;;;;22.77;16.60;;;9.00;99.50;;;;;;5055296;28;20386;-75
2021/10/14 05:18:59;;;;;;;26.10;18.88;;;9.00;99.10;;;;;;5067613;28;20039;-84
2021/10/14 05:21:24;;;;;;;28.23;18.20;;;9.00;99.00;;;;;;5058143;28;20397;-76
2021/10/14 05:23:50;;;;;;;28.10;17.60;;;9.00;99.30;;;;;;5080896;28;20024;-78
2021/10/14 05:26:15;;;;;;;26.88;19.63;;;8.90;99.10;;;;;;5063207;28;20028;-74
2021/10/14 05:28:41;;;;;;;24.20;17.35;;;8.90;99.40;;;;;;5065625;28;20024;-76
2021/10/14 05:31:07;;;;;;;26.13;17.95;;;8.90;99.50;;;;;;5094725;28;20450;-71
2021/10/14 05:33:33;;;;;;;25.00;17.55;;;9.00;99.50;;;;;;5086451;28;20024;-68
2021/10/14 05:35:59;;;;;;;24.67;17.23;;;9.00;99.40;;;;;;5086731;28;20071;-72
2021/10/14 05:38:25;;;;;;;23.83;16.70;;;9.00;99.50;;;;;;5055575;28;20059;-71
2021/10/14 05:40:51;;;;;;;24.80;17.23;;;9.10;99.30;;;;;;5074341;28;20036;-71
2021/10/14 05:43:17;;;;;;;23.55;17.25;;;9.20;99.00;;;;;;5082472;28;20073;-66
2021/10/14 05:45:42;;;;;;;23.50;16.23;;;9.20;98.40;;;;;;5061033;28;20028;-67
2021/10/14 05:48:08;;;;;;;23.40;16.35;;;9.30;98.20;;;;;;5073047;28;20037;-67
2021/10/14 05:50:34;;;;;;;23.33;16.63;;;9.30;97.60;;;;;;5054758;28;20127;-74
2021/10/14 05:52:59;;;;;;;22.20;15.60;;;9.30;97.50;;;;;;5054628;28;20107;-70
2021/10/14 05:55:25;;;;;;;23.15;15.57;;;9.40;97.40;;;;;;5073613;28;20036;-71
2021/10/14 05:57:51;;;;;;;21.13;14.88;;;9.40;97.10;;;;;;5054955;28;20115;-71
2021/10/14 06:00:16;;;;;;;21.17;14.70;;;9.40;96.90;;;;;;5055967;28;20028;-72
2021/10/14 06:02:42;;;;;;;18.63;14.50;;;9.50;96.70;;;;;;5056360;28;20360;-73
2021/10/14 06:05:09;;;;;;;22.45;15.05;;;9.60;96.80;;;;;;5055656;28;20048;-72
2021/10/14 06:07:34;;;;;;;24.10;15.25;;;9.60;96.50;;;;;;5068277;28;20486;-71
2021/10/14 06:10:00;;;;;;;22.77;14.57;;;9.70;96.20;;;;;;5056501;28;20028;-71
2021/10/14 06:12:26;;;;;;;18.23;13.50;;;9.80;95.90;;;;;;5056053;28;20020;-70
2021/10/14 06:14:53;;;;;;;19.40;14.48;;;10.10;95.80;;;;;;5074408;28;20031;-70
2021/10/14 06:17:18;;;;;;;20.55;14.27;;;10.20;95.20;;;;;;5073958;28;20028;-70
2021/10/14 06:19:44;;;;;;;18.92;13.52;;;10.40;94.00;;;;;;5074081;28;20082;-74
2021/10/14 06:22:10;;;;;;;18.80;13.55;;;10.70;94.60;;;;;;5073392;28;20099;-71
2021/10/14 06:24:35;;;;;;;18.05;12.57;;;11.00;93.10;;;;;;5055913;28;20060;-71
2021/10/14 06:27:01;;;;;;;18.17;12.38;;;11.40;92.00;;;;;;5055992;28;20036;-71
2021/10/14 06:29:27;;;;;;;19.83;13.40;;;11.60;90.00;;;;;;5056362;28;20389;-69
2021/10/14 06:31:52;;;;;;;19.40;12.80;;;11.70;87.90;;;;;;5056043;28;20102;-70
2021/10/14 06:34:18;;;;;;;16.80;11.68;;;11.70;86.60;;;;;;5073752;28;20111;-71
2021/10/14 06:36:44;;;;;;;16.38;11.95;;;11.90;86.10;;;;;;5055623;28;20564;-74
2021/10/14 06:39:09;;;;;;;16.85;11.32;;;12.10;85.40;;;;;;5072262;28;20028;-71
2021/10/14 06:41:35;;;;;;;17.48;11.68;;;12.20;84.10;;;;;;5036298;28;20036;-71
2021/10/14 06:44:01;;;;;;;16.95;10.98;;;12.60;85.00;;;;;;5035878;28;20025;-71
2021/10/14 06:46:26;;;;;;;16.38;10.43;;;13.20;83.40;;;;;;5053761;28;20064;-72
2021/10/14 06:48:52;;;;;;;19.48;11.02;;;13.90;80.50;;;;;;5035984;28;20029;-71
2021/10/14 06:51:18;;;;;;;17.95;10.00;;;14.60;78.00;;;;;;5035914;28;20035;-70
2021/10/14 06:53:43;;;;;;;13.63;10.45;;;15.20;76.30;;;;;;5053697;28;20108;-72
2021/10/14 06:56:09;;;;;;;12.82;9.60;;;16.00;74.70;;;;;;5035775;28;20060;-72
2021/10/14 06:58:35;;;;;;;13.05;10.05;;;16.80;71.90;;;;;;5035736;28;20021;-72
2021/10/14 07:01:00;;;;;;;14.32;9.05;;;17.50;68.60;;;;;;5035587;28;20028;-71
2021/10/14 07:03:26;;;;;;;14.77;9.10;;;17.90;66.80;;;;;;5053352;28;20049;-70
2021/10/14 07:05:51;;;;;;;13.27;9.07;;;18.60;64.90;;;;;;5053695;28;20037;-71
2021/10/14 07:08:17;;;;;;;11.85;9.43;;;18.90;63.40;;;;;;5035454;28;20325;-72
2021/10/14 07:10:46;;;;;;;13.93;9.52;;;19.40;62.00;;;;;;5035276;28;20108;-73
2021/10/14 07:13:13;;;;;;;12.45;9.30;;;19.70;60.70;;;;;;5035564;28;20025;-72
2021/10/14 07:15:39;;;;;;;11.65;9.02;;;19.90;59.60;;;;;;5053450;28;20031;-71
2021/10/14 07:18:06;;;;;;;12.57;8.57;;;20.20;58.30;;;;;;5035642;28;20033;-71
2021/10/14 07:20:32;;;;;;;11.02;8.32;;;20.40;57.20;;;;;;5053408;28;20025;-69
2021/10/14 07:22:58;;;;;;;13.75;8.68;;;20.60;57.00;;;;;;5035679;28;20124;-70
2021/10/14 07:25:23;;;;;;;11.48;8.15;;;21.00;55.80;;;;;;5035463;28;20029;-73
2021/10/14 07:27:49;;;;;;;10.95;8.27;;;21.30;54.80;;;;;;5035351;28;20080;-70
2021/10/14 07:30:15;;;;;;;11.93;8.70;;;21.60;54.40;;;;;;5035882;28;20383;-69
2021/10/14 07:32:40;;;;;;;12.60;8.90;;;22.10;53.30;;;;;;5035387;28;20025;-70
2021/10/14 07:35:07;;;;;;;10.40;7.57;;;22.10;52.30;;;;;;5056777;28;20033;-71
2021/10/14 07:37:32;;;;;;;10.85;7.70;;;22.20;52.20;;;;;;5039164;28;20025;-71
2021/10/14 07:39:58;;;;;;;10.38;7.57;;;22.40;51.60;;;;;;5038871;28;20486;-71
2021/10/14 07:42:24;;;;;;;11.23;8.10;;;22.60;51.10;;;;;;5056828;28;20048;-73
2021/10/14 07:44:50;;;;;;;11.60;8.20;;;22.90;50.30;;;;;;5039255;28;20079;-70
2021/10/14 07:47:16;;;;;;;9.70;7.88;;;23.20;49.50;;;;;;5057064;28;20037;-70
2021/10/14 07:49:42;;;;;;;10.23;8.05;;;23.30;48.90;;;;;;5057149;28;20043;-71
2021/10/14 07:52:08;;;;;;;13.00;8.23;;;23.50;48.00;;;;;;5057108;28;20029;-70
2021/10/14 07:54:34;;;;;;;11.13;7.85;;;23.60;47.60;;;;;;5056706;28;20119;-71
2021/10/14 07:57:00;;;;;;;12.73;7.65;;;23.60;47.50;;;;;;5038983;28;20433;-71
2021/10/14 07:59:26;;;;;;;10.88;7.47;;;23.50;47.20;;;;;;5038788;28;20064;-69
2021/10/14 08:01:51;;;;;;;9.90;7.43;;;23.50;47.60;;;;;;5039050;28;20032;-71
2021/10/14 08:04:17;;;;;;;12.52;7.63;;;23.90;47.80;;;;;;5056768;28;20418;-71
2021/10/14 08:06:43;;;;;;;10.88;7.05;;;24.30;46.90;;;;;;5038908;28;20068;-71
2021/10/14 08:09:08;;;;;;;10.80;7.47;;;24.30;46.60;;;;;;5056291;28;20106;-70
2021/10/14 08:11:34;;;;;;;13.90;7.82;;;24.70;46.10;;;;;;5056915;28;20029;-71
2021/10/14 08:14:00;;;;;;;10.13;7.35;;;24.50;45.60;;;;;;5038630;28;20025;-71
2021/10/14 08:16:26;;;;;;;11.32;7.70;;;24.50;46.00;;;;;;5038489;28;20032;-71
2021/10/14 08:18:51;;;;;;;11.95;7.55;;;25.10;45.50;;;;;;5038357;28;20036;-70
2021/10/14 08:21:17;;;;;;;10.13;7.32;;;25.10;44.80;;;;;;5038274;28;20458;-71
2021/10/14 08:23:43;;;;;;;11.02;7.82;;;25.10;44.60;;;;;;5056298;28;20035;-72
2021/10/14 08:26:09;;;;;;;11.00;7.30;;;25.30;44.30;;;;;;5038311;28;20025;-70
2021/10/14 08:28:35;;;;;;;10.43;7.15;;;25.40;44.20;;;;;;5055958;28;20129;-71
2021/10/14 08:31:01;;;;;;;10.88;6.93;;;25.70;44.20;;;;;;5056041;28;20483;-71
2021/10/14 08:33:27;;;;;;;10.48;6.72;;;25.70;43.00;;;;;;5038232;28;20057;-70
2021/10/14 08:35:53;;;;;;;9.73;6.93;;;25.30;43.00;;;;;;5056284;28;20053;-71
2021/10/14 08:38:18;;;;;;;10.63;6.43;;;24.90;43.50;;;;;;5054833;28;20079;-71
2021/10/14 08:40:47;;;;;;;9.48;6.45;;;25.00;43.60;;;;;;5054896;28;20066;-73
2021/10/14 08:43:16;;;;;;;8.00;6.20;;;24.70;43.30;;;;;;5038152;28;20027;-71
2021/10/14 08:45:45;;;;;;;9.13;6.38;;;24.50;43.90;;;;;;5037553;28;20024;-74
2021/10/14 08:48:12;;;;;;;9.57;6.22;;;24.90;44.10;;;;;;5056081;28;20094;-70
2021/10/14 08:50:40;;;;;;;7.70;6.13;;;25.20;43.30;;;;;;5054341;28;20116;-71
2021/10/14 08:53:06;;;;;;;7.88;5.72;;;25.60;43.00;;;;;;5037879;28;20025;-69
2021/10/14 08:55:35;;;;;;;8.18;5.93;;;25.80;42.70;;;;;;5038046;28;20167;-71
2021/10/14 08:58:02;;;;;;;8.20;5.53;;;26.20;42.00;;;;;;5056278;28;20109;-71
2021/10/14 09:00:27;;;;;;;8.05;5.30;;;26.50;41.50;;;;;;5054636;28;20355;-70
2021/10/14 09:02:53;;;;;;;8.45;5.43;;;26.90;40.90;;;;;;5037428;28;20025;-72
2021/10/14 09:05:19;;;;;;;8.13;5.70;;;26.70;40.30;;;;;;5054014;28;20033;-72
2021/10/14 09:07:49;;;;;;;8.30;5.10;;;26.50;40.20;;;;;;5037713;28;20047;-71
2021/10/14 09:10:16;;;;;;;10.25;5.80;;;26.10;41.00;;;;;;5037626;28;20029;-71
2021/10/14 09:12:47;;;;;;;8.27;5.68;;;26.20;41.30;;;;;;5055290;28;20059;-71
2021/10/14 09:15:15;;;;;;;8.50;5.80;;;26.30;40.70;;;;;;5055428;28;20028;-70
2021/10/14 09:17:51;;;;;;;7.85;5.13;;;26.10;41.00;;;;;;5055575;28;20025;-71
2021/10/14 09:20:37;;;;;;;8.23;6.15;;;26.10;40.90;;;;;;5055172;28;20144;-70
2021/10/14 09:23:02;;;;;;;9.52;4.90;;;25.60;40.60;;;;;;5054081;28;20056;-70
2021/10/14 09:25:34;;;;;;;8.07;5.40;;;24.70;40.80;;;;;;5055133;28;20079;-70
2021/10/14 09:28:19;;;;;;;7.60;5.05;;;24.00;41.80;;;;;;5053509;28;20106;-70
2021/10/14 09:30:46;;;;;;;;;;;24.20;42.40;;;;;;5055894;28;20036;-68
2021/10/14 09:33:29;;;;;;;6.68;5.03;;;25.00;42.80;;;;;;5037158;28;19905;-70
2021/10/14 09:35:56;;;;;;;7.25;4.95;;;25.40;42.10;;;;;;5036926;28;20036;-70
2021/10/14 09:38:32;;;;;;;6.78;4.75;;;25.10;41.10;;;;;;5054723;28;20045;-70
2021/10/14 09:41:10;;;;;;;7.43;4.60;;;25.00;42.00;;;;;;5037025;28;20471;-70
2021/10/14 09:43:35;;;;;;;8.48;4.95;;;25.60;41.60;;;;;;5055339;28;20025;-70
2021/10/14 09:46:02;;;;;;;8.45;4.65;;;26.20;40.90;;;;;;5055208;28;20102;-70
2021/10/14 09:48:28;;;;;;;8.13;4.82;;;26.50;39.80;;;;;;5036836;28;20029;-70
2021/10/14 09:50:54;;;;;;;7.63;5.22;;;26.20;39.70;;;;;;5036832;28;20154;-70
2021/10/14 09:53:22;;;;;;;8.23;4.75;;;26.00;39.60;;;;;;5036742;28;20025;-70
2021/10/14 09:55:49;;;;;;;6.32;4.38;;;26.10;40.00;;;;;;5036148;28;20029;-69
2021/10/14 09:58:16;;;;;;;7.32;4.40;;;26.50;39.50;;;;;;5054374;28;20033;-70
2021/10/14 10:00:43;;;;;;;6.30;4.45;;;26.40;39.00;;;;;;5036569;28;20387;-71
2021/10/14 10:03:24;;;;;;;8.75;4.13;;;26.20;38.70;;;;;;5036625;28;20029;-70
2021/10/14 10:05:51;;;;;;;6.65;4.00;;;26.10;38.80;;;;;;5054353;28;20032;-71
2021/10/14 10:08:42;;;;;;;6.97;4.28;;;26.10;38.60;;;;;;5036484;28;20037;-70
2021/10/14 10:11:13;;;;;;;7.80;4.22;;;25.50;38.90;;;;;;5043251;28;20037;-69
2021/10/14 10:13:45;;;;;;;7.50;5.03;;;24.80;38.80;;;;;;5054453;28;20519;-70
2021/10/14 10:16:19;;;;;;;7.63;4.80;;;24.50;39.90;;;;;;5050523;28;20025;-71
2021/10/14 10:18:46;;;;;;;7.20;5.07;;;24.50;40.30;;;;;;5036886;28;20116;-70
2021/10/14 10:21:39;;;;;;;7.72;5.55;;;24.80;40.50;;;;;;5036632;28;20029;-70
2021/10/14 10:24:20;;;;;;;9.45;5.25;;;25.40;40.30;;;;;;5049640;28;20490;-70
2021/10/14 10:26:47;;;;;;;9.73;6.63;;;25.20;39.40;;;;;;5052622;28;20475;-69
2021/10/14 10:29:12;;;;;;;7.45;5.35;;;24.80;39.40;;;;;;5053950;28;20167;-69
2021/10/14 10:31:56;;;;;;;7.22;4.90;;;24.40;39.70;;;;;;5053200;28;20140;-69
2021/10/14 10:37:15;;;;;;;6.57;4.82;;;23.20;40.20;;;;;;5053884;28;20510;-70
2021/10/14 10:40:03;;;;;;;8.52;4.90;;;22.60;41.40;;;;;;5052547;28;20032;-69
2021/10/14 10:42:39;;;;;;;7.15;4.78;;;22.60;42.00;;;;;;5023274;28;20033;-68
2021/10/14 10:45:06;;;;;;;7.82;5.03;;;22.80;42.10;;;;;;5053951;28;20455;-70
2021/10/14 10:47:39;;;;;;;6.68;4.22;;;23.10;41.80;;;;;;5052238;28;20033;-70
2021/10/14 10:50:07;;;;;;;6.78;4.55;;;23.30;41.40;;;;;;5052829;28;20457;-68
2021/10/14 10:52:35;;;;;;;7.88;5.22;;;23.40;40.90;;;;;;5053666;28;20025;-69
2021/10/14 10:55:10;;;;;;;7.43;4.50;;;23.70;40.70;;;;;;5035798;28;20025;-70
2021/10/14 10:58:04;;;;;;;6.10;4.47;;;23.70;40.40;;;;;;5052256;28;20036;-70
2021/10/14 11:00:30;;;;;;;7.15;4.60;;;23.60;40.00;;;;;;5033685;28;20395;-73
2021/10/14 11:03:09;;;;;;;6.32;4.82;;;23.00;40.50;;;;;;5035490;28;20027;-69
2021/10/14 11:05:40;;;;;;;7.57;5.35;;;22.40;41.20;;;;;;5053743;28;20048;-69
2021/10/14 11:08:07;;;;;;;7.93;5.20;;;22.30;41.40;;;;;;5035289;28;20044;-69
2021/10/14 11:10:33;;;;;;;7.22;4.80;;;22.10;41.80;;;;;;5052184;28;20071;-70
2021/10/14 11:13:02;;;;;;;6.50;4.80;;;21.50;41.90;;;;;;5035562;28;20060;-69
2021/10/14 11:15:28;;;;;;;7.03;4.28;;;21.10;42.60;;;;;;5053158;28;20478;-69
2021/10/14 11:18:21;;;;;;;9.30;5.53;;;21.20;42.90;;;;;;5035650;28;20423;-69
2021/10/14 11:20:59;;;;;;;8.80;5.30;;;21.00;43.10;;;;;;5048473;28;20094;-70
2021/10/14 11:23:28;;;;;;;7.90;5.65;;;20.50;43.50;;;;;;5052290;28;20086;-72
2021/10/14 11:26:21;;;;;;;9.65;5.95;;;19.80;44.60;;;;;;5052617;28;20056;-69
2021/10/14 11:29:11;;;;;;;7.25;5.60;;;19.20;45.80;;;;;;5053209;28;20104;-69
2021/10/14 11:32:03;;;;;;;9.55;6.00;;;18.70;46.80;;;;;;5026092;28;20060;-69
2021/10/14 11:34:29;;;;;;;9.05;6.00;;;18.20;47.80;;;;;;5042276;28;20037;-69
2021/10/14 11:37:06;;;;;;;9.32;6.07;;;17.80;49.00;;;;;;5035138;28;20376;-70
2021/10/14 11:39:39;;;;;;;8.27;6.03;;;17.80;49.60;;;;;;5051607;28;20116;-70
2021/10/14 11:42:10;;;;;;;10.55;6.20;;;17.70;49.50;;;;;;5035807;28;20093;-69
2021/10/14 11:44:38;;;;;;;7.82;5.70;;;17.40;49.90;;;;;;5035186;28;20025;-70
2021/10/14 11:47:07;;;;;;;8.85;5.75;;;17.10;50.20;;;;;;5053110;28;20032;-74
2021/10/14 11:49:33;;;;;;;9.85;6.53;;;17.50;50.60;;;;;;5035243;28;20084;-70
2021/10/14 11:52:04;;;;;;;9.63;6.30;;;18.30;49.80;;;;;;5034999;28;20457;-71
2021/10/14 11:54:32;;;;;;;9.75;5.93;;;18.70;48.80;;;;;;5035214;28;20063;-70
2021/10/14 11:56:58;;;;;;;10.85;6.55;;;18.90;48.50;;;;;;5051826;28;20037;-69
2021/10/14 11:59:26;;;;;;;8.52;6.15;;;19.00;48.50;;;;;;5035226;28;20387;-69
2021/10/14 12:01:57;;;;;;;11.98;6.45;;;19.00;48.50;;;;;;5053095;28;20025;-70
2021/10/14 12:04:34;;;;;;;10.38;7.05;;;18.70;48.80;;;;;;5049656;28;20107;-71
2021/10/14 12:07:01;;;;;;;11.25;6.35;;;18.90;49.40;;;;;;5053574;28;20041;-70
2021/10/14 12:09:27;;;;;;;9.10;6.28;;;19.40;48.70;;;;;;5052875;28;20037;-70
2021/10/14 12:11:58;;;;;;;9.45;6.00;;;19.70;47.50;;;;;;5035185;28;20120;-70
2021/10/14 12:14:25;;;;;;;10.18;6.53;;;19.40;46.50;;;;;;5034879;28;20483;-70
2021/10/14 12:17:10;;;;;;;8.85;6.13;;;19.10;46.90;;;;;;5034839;28;20025;-70
2021/10/14 12:19:39;;;;;;;9.77;6.45;;;18.60;47.50;;;;;;5052544;28;20021;-70
2021/10/14 12:22:06;;;;;;;9.15;6.20;;;18.30;48.00;;;;;;5055265;28;20025;-71
2021/10/14 12:24:49;;;;;;;10.63;7.32;;;18.30;48.40;;;;;;5038587;28;20029;-70
2021/10/14 12:27:14;;;;;;;8.82;6.65;;;18.30;49.00;;;;;;5056151;28;20059;-71
2021/10/14 12:29:45;;;;;;;9.32;6.88;;;18.10;49.10;;;;;;5056172;28;20033;-71
2021/10/14 12:32:18;;;;;;;10.02;6.97;;;18.00;49.50;;;;;;5056487;28;20053;-70
2021/10/14 12:34:46;;;;;;;8.82;6.40;;;17.70;50.80;;;;;;5038595;28;20032;-69
2021/10/14 12:37:13;;;;;;;11.10;6.70;;;17.50;50.50;;;;;;5055986;28;20025;-70
2021/10/14 12:39:40;;;;;;;8.38;5.95;;;17.30;50.30;;;;;;5038202;28;20130;-69
2021/10/14 12:42:07;;;;;;;9.73;7.20;;;17.10;50.10;;;;;;5037781;28;20076;-68